• Join FlightAware (Why Join?)
  • Login
  • US Flag GB Flag 
16:52 EDT


 

Airport Tracker/Info


-or-


 

Live Flight TrackerFlight Track Log ✈ AWE3425 ✈ 28-Apr-2013 ✈ KPHL - KDCA

Flight Track Log - Related Links

Times and Time Zones

All times are in EDT time to prevent confusion due to time zone crossing. See the AWE3425 flight status page for this flight to view local times or setup timezone preferences in your user account.

Time Position Orientation Groundspeed Altitude Reporting Facility
EDT Latitude Longitude Course Direction KTS MPH feet Rate Location/Type
15:21 39.8667 -75.2667 264° West 168 193 600  Level Philadelphia TRACON
15:23 39.7401 -75.4865 237° Southwest  Level FlightAware Approximate
15:23 39.8167 -75.3500 232° Southwest 244 281 3,200  Level Philadelphia TRACON
15:24 39.6871 -75.5660 232° Southwest  Level FlightAware Approximate
15:24 39.7500 -75.3667 191° South 262 302 6,600  Level Philadelphia TRACON
15:25 39.6615 -75.6624 264° West  Level FlightAware Approximate
15:25 39.7167 -75.4667 247° West 279 321 9,700  Level Philadelphia TRACON
15:26 39.6527 -75.7676 264° West  Level FlightAware Approximate
15:26 39.7000 -75.5667 258° West 305 351 10,000  Level Philadelphia TRACON
15:27 39.6667 -75.6667 247° West 301 346 10,000  Level Philadelphia TRACON
15:27 39.6667 -75.7667 270° West 301 346 10,000  Level Philadelphia TRACON
15:30 39.6333 -76.0000 260° West 301 346 10,000  Level Potomac TRACON
15:31 39.5833 -76.0833 232° Southwest 292 336 10,000  Level Potomac TRACON
15:32 39.5167 -76.1667 224° Southwest 327 376 10,000  Level Potomac TRACON
15:33 39.4500 -76.2667 229° Southwest 329 379 10,000  Level Potomac TRACON
15:34 39.4000 -76.3500 232° Southwest 327 376 10,000  Level Potomac TRACON
15:35 39.3333 -76.4333 224° Southwest 325 374 10,000  Level Potomac TRACON
15:36 39.2833 -76.5167 232° Southwest 310 357 10,000  Level Potomac TRACON
15:37 39.2167 -76.6000 224° Southwest 297 342 10,000  Level Potomac TRACON
15:38 39.1667 -76.6667 226° Southwest 263 303 10,000  Level Potomac TRACON
15:39 39.1167 -76.7333 226° Southwest 265 305 10,000  Level Potomac TRACON
15:40 39.0500 -76.8000 218° Southwest 266 306 10,000 -180 Level Potomac TRACON
15:41 39.0000 -76.8500 218° Southwest 233 268 9,700 -900 Descending Potomac TRACON
15:42 38.9667 -76.9167 237° Southwest 220 253 8,300 -1,740 Descending Potomac TRACON
15:43 38.9667 -77.0000 270° West 233 268 6,300 -1,200 Descending Potomac TRACON
15:44 39.0000 -77.0667 303° West 224 258 5,900 -840 Descending Potomac TRACON
15:45 39.0500 -77.1167 322° Northwest 222 255 4,700 -1,440 Descending Potomac TRACON
15:46 39.0833 -77.1667 311° West 221 254 3,200 -840 Descending Potomac TRACON
15:47 39.0500 -77.2333 237° Southwest 169 194 3,000 -120 Descending Potomac TRACON
15:48 39.0167 -77.2333 180° South 159 183 3,000 -60 Level Potomac TRACON
15:49 38.9833 -77.2000 142° Southeast 156 180 2,900 -360 Descending Potomac TRACON
15:50 38.9667 -77.1667 123° Southeast 161 185 2,400 -600 Descending Potomac TRACON